createdAt,value
2023-03-22T00:00:11.087Z,2.24
2023-03-22T00:01:11.076Z,3.02
2023-03-22T00:02:11.185Z,2.66
2023-03-22T00:03:11.087Z,2.16
2023-03-22T00:04:11.192Z,2.58
2023-03-22T00:05:11.087Z,2.10
2023-03-22T00:06:11.088Z,3.62
2023-03-22T00:07:11.076Z,2.38
2023-03-22T00:08:11.093Z,1.84
2023-03-22T00:09:11.089Z,3.02
2023-03-22T00:10:11.076Z,2.24
2023-03-22T00:11:11.080Z,2.24
2023-03-22T00:12:11.087Z,2.86
2023-03-22T00:13:11.082Z,2.46
2023-03-22T00:14:11.077Z,2.24
2023-03-22T00:15:11.084Z,2.32
2023-03-22T00:16:11.206Z,1.90
2023-03-22T00:17:11.075Z,2.72
2023-03-22T00:18:11.080Z,3.84
2023-03-22T00:19:11.078Z,2.54
2023-03-22T00:20:11.077Z,2.90
2023-03-22T00:21:13.097Z,2.00
2023-03-22T00:22:11.079Z,2.46
2023-03-22T00:23:11.079Z,3.04
2023-03-22T00:24:11.081Z,2.38
2023-03-22T00:25:11.078Z,2.52
2023-03-22T00:26:11.095Z,2.76
2023-03-22T00:27:11.078Z,2.26
2023-03-22T00:28:11.077Z,2.98
2023-03-22T00:29:11.075Z,2.14
2023-03-22T00:30:11.087Z,3.26
2023-03-22T00:31:11.091Z,1.96
2023-03-22T00:32:11.075Z,2.34
2023-03-22T00:33:11.086Z,2.12
2023-03-22T00:34:11.085Z,2.94
2023-03-22T00:35:11.076Z,3.68
2023-03-22T00:36:11.129Z,3.40
2023-03-22T00:37:11.090Z,2.10
2023-03-22T00:38:11.079Z,3.34
2023-03-22T00:39:11.084Z,2.82
2023-03-22T00:40:13.086Z,2.50
2023-03-22T00:41:15.077Z,2.34
2023-03-22T00:42:11.085Z,2.98
2023-03-22T00:43:11.084Z,2.34
2023-03-22T00:44:11.085Z,2.64
2023-03-22T00:45:12.110Z,2.28
2023-03-22T00:46:11.133Z,2.66
2023-03-22T00:47:11.083Z,2.76
2023-03-22T00:48:13.135Z,2.62
2023-03-22T00:49:11.084Z,2.48
2023-03-22T00:50:11.080Z,2.40
2023-03-22T00:51:11.094Z,3.90
2023-03-22T00:52:11.088Z,1.82
2023-03-22T00:53:11.081Z,2.38
2023-03-22T00:54:11.086Z,1.78
2023-03-22T00:55:11.087Z,1.86
2023-03-22T00:56:11.082Z,2.84
2023-03-22T00:57:11.089Z,2.00
2023-03-22T00:58:11.086Z,2.40
2023-03-22T00:59:11.082Z,2.38
2023-03-22T01:00:15.090Z,1.98
2023-03-22T01:01:11.066Z,1.96
2023-03-22T01:02:11.067Z,2.02
2023-03-22T01:03:11.107Z,2.22
2023-03-22T01:04:11.062Z,2.46
2023-03-22T01:05:11.067Z,2.06
2023-03-22T01:06:11.080Z,2.12
2023-03-22T01:07:11.061Z,1.96
2023-03-22T01:08:12.091Z,1.74
2023-03-22T01:09:11.061Z,1.50
2023-03-22T01:10:11.065Z,1.70
2023-03-22T01:11:11.065Z,2.20
2023-03-22T01:12:11.065Z,2.64
2023-03-22T01:13:11.060Z,2.72
2023-03-22T01:14:11.062Z,2.14
2023-03-22T01:15:11.061Z,1.86
2023-03-22T01:16:11.096Z,1.82
2023-03-22T01:17:11.071Z,1.80
2023-03-22T01:18:11.064Z,2.30
2023-03-22T01:19:11.065Z,3.46
2023-03-22T01:20:11.065Z,1.98
2023-03-22T01:21:11.064Z,1.52
2023-03-22T01:22:11.067Z,2.36
2023-03-22T01:23:11.061Z,2.04
2023-03-22T01:24:11.060Z,2.16
2023-03-22T01:25:11.061Z,3.58
2023-03-22T01:26:11.066Z,2.60
2023-03-22T01:27:11.061Z,1.58
2023-03-22T01:28:11.070Z,1.70
2023-03-22T01:29:11.063Z,1.96
2023-03-22T01:30:11.058Z,2.56
2023-03-22T01:31:11.121Z,2.48
2023-03-22T01:32:11.070Z,1.54
2023-03-22T01:33:11.058Z,2.12
2023-03-22T01:34:11.061Z,1.32
2023-03-22T01:35:11.072Z,1.10
2023-03-22T01:36:11.061Z,2.00
2023-03-22T01:37:11.068Z,2.36
2023-03-22T01:38:11.064Z,1.98
2023-03-22T01:39:11.060Z,1.68
2023-03-22T01:40:11.067Z,1.72
2023-03-22T01:41:11.066Z,2.38
2023-03-22T01:42:14.065Z,1.88
2023-03-22T01:43:14.070Z,2.10
2023-03-22T01:44:18.066Z,1.54
2023-03-22T01:45:19.064Z,1.62
2023-03-22T01:46:11.137Z,2.60
2023-03-22T01:47:11.072Z,2.12
2023-03-22T01:48:17.187Z,3.22
2023-03-22T01:49:15.108Z,2.98
2023-03-22T01:50:11.068Z,1.70
2023-03-22T01:51:17.079Z,1.66
2023-03-22T01:52:12.095Z,3.18
2023-03-22T01:53:12.068Z,2.34
2023-03-22T01:54:12.069Z,1.76
2023-03-22T01:55:11.082Z,1.64
2023-03-22T01:56:11.088Z,1.34
2023-03-22T01:57:11.071Z,2.28
2023-03-22T01:58:11.073Z,1.94
2023-03-22T01:59:12.076Z,0.96
2023-03-22T02:00:14.076Z,1.62
2023-03-22T02:01:11.121Z,1.86
2023-03-22T02:02:11.066Z,1.32
2023-03-22T02:03:11.073Z,2.24
2023-03-22T02:04:12.072Z,1.94
2023-03-22T02:05:11.072Z,1.82
2023-03-22T02:06:11.075Z,1.72
2023-03-22T02:07:15.073Z,1.50
2023-03-22T02:08:11.068Z,1.44
2023-03-22T02:09:11.081Z,1.50
2023-03-22T02:10:13.078Z,1.96
2023-03-22T02:11:15.070Z,1.28
2023-03-22T02:12:21.076Z,1.58
2023-03-22T02:13:21.081Z,1.60
2023-03-22T02:14:19.075Z,1.74
2023-03-22T02:15:18.068Z,1.14
2023-03-22T02:16:23.072Z,1.54
2023-03-22T02:17:19.073Z,2.72
2023-03-22T02:18:19.081Z,1.32
2023-03-22T02:19:20.069Z,1.10
2023-03-22T02:20:20.069Z,1.14
2023-03-22T02:21:19.070Z,1.40
2023-03-22T02:22:19.082Z,2.70
2023-03-22T02:23:19.072Z,1.76
2023-03-22T02:24:23.070Z,1.50
2023-03-22T02:25:19.078Z,1.60
2023-03-22T02:26:19.071Z,1.40
2023-03-22T02:27:19.086Z,1.30
2023-03-22T02:28:23.072Z,1.20
2023-03-22T02:29:22.102Z,1.22
2023-03-22T02:30:19.072Z,1.30
2023-03-22T02:31:21.152Z,1.50
2023-03-22T02:32:19.073Z,1.42
2023-03-22T02:33:19.073Z,1.08
2023-03-22T02:34:21.071Z,1.48
2023-03-22T02:35:21.125Z,1.22
2023-03-22T02:36:21.075Z,0.96
2023-03-22T02:37:21.077Z,0.98
2023-03-22T02:38:21.080Z,2.12
2023-03-22T02:39:19.073Z,1.26
2023-03-22T02:40:19.071Z,0.82
2023-03-22T02:41:19.074Z,1.96
2023-03-22T02:42:19.072Z,2.12
2023-03-22T02:43:19.082Z,1.86
2023-03-22T02:44:19.075Z,1.42
2023-03-22T02:45:21.074Z,1.14
2023-03-22T02:46:21.100Z,0.88
2023-03-22T02:47:19.076Z,0.66
2023-03-22T02:48:17.158Z,1.38
2023-03-22T02:49:16.073Z,1.84
2023-03-22T02:50:19.074Z,1.28
2023-03-22T02:51:18.091Z,1.24
2023-03-22T02:52:18.074Z,1.00
2023-03-22T02:53:18.071Z,0.80
2023-03-22T02:54:22.069Z,0.96
2023-03-22T02:55:19.072Z,0.74
2023-03-22T02:56:16.081Z,1.24
2023-03-22T02:57:16.077Z,1.98
2023-03-22T02:58:21.070Z,1.50
2023-03-22T02:59:11.075Z,1.30
2023-03-22T03:00:15.082Z,1.42
2023-03-22T03:01:12.098Z,0.90
2023-03-22T03:02:13.165Z,0.90
2023-03-22T03:03:15.087Z,0.86
2023-03-22T03:04:17.071Z,2.24
2023-03-22T03:05:12.071Z,1.06
2023-03-22T03:06:17.076Z,1.22
2023-03-22T03:07:12.081Z,1.50
2023-03-22T03:08:11.087Z,0.52
2023-03-22T03:09:11.074Z,1.28
2023-03-22T03:10:12.081Z,1.42
2023-03-22T03:11:11.074Z,1.20
2023-03-22T03:12:19.071Z,1.12
2023-03-22T03:13:14.084Z,0.98
2023-03-22T03:14:19.073Z,1.22
2023-03-22T03:15:15.077Z,1.10
2023-03-22T03:16:14.114Z,1.38
2023-03-22T03:17:19.078Z,1.26
2023-03-22T03:18:21.073Z,1.40
2023-03-22T03:19:19.073Z,0.92
2023-03-22T03:20:20.096Z,1.08
2023-03-22T03:21:19.088Z,1.22
2023-03-22T03:22:21.079Z,0.98
2023-03-22T03:23:19.082Z,1.22
2023-03-22T03:24:22.077Z,1.26
2023-03-22T03:25:21.080Z,1.22
2023-03-22T03:26:19.093Z,0.90
2023-03-22T03:27:21.078Z,0.92
2023-03-22T03:28:17.099Z,0.88
2023-03-22T03:29:19.077Z,0.78
2023-03-22T03:30:13.083Z,0.78
2023-03-22T03:31:19.093Z,1.46
2023-03-22T03:32:19.076Z,0.90
2023-03-22T03:33:14.078Z,0.92
2023-03-22T03:34:18.083Z,0.64
2023-03-22T03:35:15.104Z,0.58
2023-03-22T03:36:12.075Z,0.82
2023-03-22T03:37:15.081Z,1.34
2023-03-22T03:38:16.085Z,0.98
2023-03-22T03:39:14.075Z,0.58
2023-03-22T03:40:17.077Z,0.90
2023-03-22T03:41:15.101Z,0.84
2023-03-22T03:42:13.080Z,1.08
2023-03-22T03:43:11.077Z,0.82
2023-03-22T03:44:11.086Z,0.62
2023-03-22T03:45:11.091Z,1.00
2023-03-22T03:46:11.117Z,1.30
2023-03-22T03:47:11.086Z,0.86
2023-03-22T03:48:18.146Z,0.88
2023-03-22T03:49:12.089Z,0.98
2023-03-22T03:50:11.083Z,0.98
2023-03-22T03:51:11.089Z,0.72
2023-03-22T03:52:11.076Z,0.76
2023-03-22T03:53:11.086Z,0.72
2023-03-22T03:54:11.088Z,0.92
2023-03-22T03:55:11.082Z,0.76
2023-03-22T03:56:11.088Z,0.78
2023-03-22T03:57:11.084Z,1.02
2023-03-22T03:58:11.084Z,0.86
2023-03-22T03:59:12.085Z,0.74
2023-03-22T04:00:11.089Z,0.86
2023-03-22T04:01:11.057Z,0.72
2023-03-22T04:02:11.086Z,0.92
2023-03-22T04:03:11.067Z,0.90
2023-03-22T04:04:11.141Z,0.74
2023-03-22T04:05:11.068Z,0.84
2023-03-22T04:06:11.072Z,0.56
2023-03-22T04:07:11.070Z,0.40
2023-03-22T04:08:11.070Z,0.50
2023-03-22T04:09:11.059Z,0.88
2023-03-22T04:10:11.069Z,1.40
2023-03-22T04:11:11.072Z,0.80
2023-03-22T04:12:11.061Z,0.62
2023-03-22T04:13:11.067Z,1.16
2023-03-22T04:14:11.076Z,1.84
2023-03-22T04:15:11.062Z,0.86
2023-03-22T04:16:11.066Z,0.86
2023-03-22T04:17:11.066Z,0.62
2023-03-22T04:18:11.062Z,0.52
2023-03-22T04:19:11.069Z,0.48
2023-03-22T04:20:11.065Z,0.66
2023-03-22T04:21:11.065Z,0.70
2023-03-22T04:22:11.065Z,1.86
2023-03-22T04:23:11.082Z,0.44
2023-03-22T04:24:11.066Z,0.66
2023-03-22T04:25:12.072Z,0.54
2023-03-22T04:26:11.070Z,0.46
2023-03-22T04:27:11.062Z,0.40
2023-03-22T04:28:11.069Z,0.40
2023-03-22T04:29:11.066Z,0.46
2023-03-22T04:30:13.064Z,0.30
2023-03-22T04:31:11.201Z,0.42
2023-03-22T04:32:11.065Z,0.32
2023-03-22T04:33:11.061Z,0.52
2023-03-22T04:34:11.073Z,0.32
2023-03-22T04:35:11.067Z,0.46
2023-03-22T04:36:11.068Z,0.20
2023-03-22T04:37:11.082Z,0.34
2023-03-22T04:38:11.063Z,0.40
2023-03-22T04:39:12.072Z,0.62
2023-03-22T04:40:11.074Z,0.40
2023-03-22T04:41:11.064Z,1.06
2023-03-22T04:42:11.070Z,0.30
2023-03-22T04:43:13.325Z,0.16
2023-03-22T04:44:11.062Z,0.68
2023-03-22T04:45:11.070Z,0.40
2023-03-22T04:46:11.168Z,0.40
2023-03-22T04:47:11.063Z,0.50
2023-03-22T04:48:11.155Z,0.30
2023-03-22T04:49:11.073Z,0.60
2023-03-22T04:50:11.066Z,0.20
2023-03-22T04:51:11.090Z,0.44
2023-03-22T04:52:11.073Z,0.58
2023-03-22T04:53:11.065Z,0.22
2023-03-22T04:54:11.070Z,0.40
2023-03-22T04:55:11.076Z,0.50
2023-03-22T04:56:12.094Z,1.22
2023-03-22T04:57:11.067Z,0.38
2023-03-22T04:58:11.069Z,0.48
2023-03-22T04:59:11.064Z,0.20
2023-03-22T05:00:13.070Z,0.28
2023-03-22T05:01:11.178Z,0.26
2023-03-22T05:02:11.062Z,0.42
2023-03-22T05:03:11.163Z,0.50
2023-03-22T05:04:11.068Z,1.24
2023-03-22T05:05:11.065Z,0.30
2023-03-22T05:06:11.074Z,0.34
2023-03-22T05:07:11.066Z,0.24
2023-03-22T05:08:11.063Z,0.40
2023-03-22T05:09:11.074Z,0.44
2023-03-22T05:10:11.080Z,0.54
2023-03-22T05:11:17.088Z,0.58
2023-03-22T05:12:11.086Z,0.42
2023-03-22T05:13:11.069Z,0.34
2023-03-22T05:14:11.091Z,0.46
2023-03-22T05:15:11.079Z,1.58
2023-03-22T05:16:11.156Z,0.32
2023-03-22T05:17:11.082Z,0.36
2023-03-22T05:18:11.071Z,0.50
2023-03-22T05:19:11.069Z,0.58
2023-03-22T05:20:14.071Z,0.34
2023-03-22T05:21:15.076Z,0.94
2023-03-22T05:22:11.067Z,0.36
2023-03-22T05:23:11.064Z,0.54
2023-03-22T05:24:11.073Z,0.52
2023-03-22T05:25:11.069Z,0.54
2023-03-22T05:26:12.067Z,0.44
2023-03-22T05:27:11.073Z,0.30
2023-03-22T05:28:11.072Z,0.48
2023-03-22T05:29:11.086Z,0.26
2023-03-22T05:30:11.073Z,0.40
2023-03-22T05:31:11.203Z,0.54
2023-03-22T05:32:11.066Z,0.76
2023-03-22T05:33:11.072Z,1.24
2023-03-22T05:34:11.068Z,1.24
2023-03-22T05:35:11.074Z,0.30
2023-03-22T05:36:11.086Z,0.50
2023-03-22T05:37:11.069Z,0.96
2023-03-22T05:38:11.072Z,0.56
2023-03-22T05:39:11.079Z,0.84
2023-03-22T05:40:13.071Z,1.10
2023-03-22T05:41:11.071Z,0.98
2023-03-22T05:42:11.077Z,1.30
2023-03-22T05:43:11.079Z,1.72
2023-03-22T05:44:11.072Z,1.02
2023-03-22T05:45:11.110Z,2.06
2023-03-22T05:46:11.075Z,1.30
2023-03-22T05:47:11.072Z,0.96
2023-03-22T05:48:11.188Z,1.10
2023-03-22T05:49:12.168Z,2.36
2023-03-22T05:50:15.075Z,2.32
2023-03-22T05:51:13.082Z,1.74
2023-03-22T05:52:11.077Z,2.08
2023-03-22T05:53:11.078Z,1.82
2023-03-22T05:54:11.077Z,2.46
2023-03-22T05:55:11.080Z,1.92
2023-03-22T05:56:13.077Z,1.60
2023-03-22T05:57:11.096Z,1.48
2023-03-22T05:58:11.091Z,1.80
2023-03-22T05:59:11.081Z,1.56
2023-03-22T06:00:13.093Z,2.42
2023-03-22T06:01:11.082Z,2.56
2023-03-22T06:02:11.161Z,2.86
2023-03-22T06:03:11.139Z,4.28
2023-03-22T06:04:11.084Z,3.74
2023-03-22T06:05:11.093Z,2.64
2023-03-22T06:06:11.087Z,3.44
2023-03-22T06:07:11.081Z,2.92
2023-03-22T06:08:11.082Z,3.32
2023-03-22T06:09:17.424Z,4.96
2023-03-22T06:10:15.412Z,4.26
2023-03-22T06:11:11.083Z,3.74
2023-03-22T06:12:11.078Z,3.34
2023-03-22T06:13:11.115Z,4.32
2023-03-22T06:14:11.120Z,4.00
2023-03-22T06:15:11.110Z,5.12
2023-03-22T06:16:11.150Z,4.16
2023-03-22T06:17:11.094Z,4.62
2023-03-22T06:18:11.087Z,5.10
2023-03-22T06:19:11.090Z,4.94
2023-03-22T06:20:15.093Z,4.26
2023-03-22T06:21:11.086Z,4.18
2023-03-22T06:22:11.082Z,3.98
2023-03-22T06:23:11.089Z,4.78
2023-03-22T06:24:11.086Z,3.90
2023-03-22T06:25:11.085Z,5.06
2023-03-22T06:26:11.086Z,5.74
2023-03-22T06:27:11.088Z,4.60
2023-03-22T06:28:11.083Z,4.10
2023-03-22T06:29:11.081Z,6.18
2023-03-22T06:30:11.085Z,3.42
2023-03-22T06:31:11.134Z,4.08
2023-03-22T06:32:11.081Z,4.90
2023-03-22T06:33:11.092Z,5.20
2023-03-22T06:34:11.076Z,3.86
2023-03-22T06:35:11.078Z,5.32
2023-03-22T06:36:11.090Z,5.30
2023-03-22T06:37:11.080Z,4.38
2023-03-22T06:38:11.104Z,4.72
2023-03-22T06:39:11.085Z,5.12
2023-03-22T06:40:11.080Z,4.56
2023-03-22T06:41:11.073Z,6.40
2023-03-22T06:42:11.109Z,3.44
2023-03-22T06:43:11.077Z,4.94
2023-03-22T06:44:11.074Z,4.68
2023-03-22T06:45:11.078Z,4.86
2023-03-22T06:46:11.164Z,5.52
2023-03-22T06:47:11.072Z,4.24
2023-03-22T06:48:11.113Z,5.18
2023-03-22T06:49:11.078Z,5.00
2023-03-22T06:50:11.072Z,5.02
2023-03-22T06:51:11.076Z,5.78
2023-03-22T06:52:11.077Z,5.72
2023-03-22T06:53:11.081Z,6.04
2023-03-22T06:54:11.074Z,5.44
2023-03-22T06:55:11.083Z,5.62
2023-03-22T06:56:11.073Z,5.36
2023-03-22T06:57:11.077Z,5.96
2023-03-22T06:58:11.086Z,5.00
2023-03-22T06:59:11.080Z,4.90
2023-03-22T07:00:11.077Z,4.88
2023-03-22T07:01:11.176Z,4.74
2023-03-22T07:02:12.074Z,6.30
2023-03-22T07:03:11.061Z,5.64
2023-03-22T07:04:11.136Z,5.80
2023-03-22T07:05:11.069Z,4.66
2023-03-22T07:06:11.058Z,5.36
2023-03-22T07:07:11.058Z,4.66
2023-03-22T07:08:11.060Z,6.02
2023-03-22T07:09:11.057Z,6.40
2023-03-22T07:10:11.065Z,5.34
2023-03-22T07:11:11.059Z,4.68
2023-03-22T07:12:11.068Z,6.76
2023-03-22T07:13:11.062Z,4.52
2023-03-22T07:14:11.060Z,4.92
2023-03-22T07:15:11.059Z,4.70
2023-03-22T07:16:11.104Z,4.80
2023-03-22T07:17:11.067Z,5.46
2023-03-22T07:18:11.061Z,4.48
2023-03-22T07:19:11.062Z,5.46
2023-03-22T07:20:11.076Z,7.26
2023-03-22T07:21:11.062Z,6.16
2023-03-22T07:22:11.074Z,5.82
2023-03-22T07:23:11.071Z,7.32
2023-03-22T07:24:11.059Z,5.18
2023-03-22T07:25:11.066Z,6.74
2023-03-22T07:26:11.069Z,7.02
2023-03-22T07:27:11.079Z,8.98
2023-03-22T07:28:11.056Z,5.38
2023-03-22T07:29:11.072Z,5.46
2023-03-22T07:30:11.061Z,7.26
2023-03-22T07:31:11.058Z,6.22
2023-03-22T07:32:11.139Z,6.06
2023-03-22T07:33:11.066Z,7.36
2023-03-22T07:34:11.094Z,5.46
2023-03-22T07:35:11.063Z,6.92
2023-03-22T07:36:11.063Z,7.04
2023-03-22T07:37:12.064Z,4.82
2023-03-22T07:38:11.069Z,5.70
2023-03-22T07:39:11.064Z,6.40
2023-03-22T07:40:11.069Z,7.48
2023-03-22T07:41:11.070Z,4.18
2023-03-22T07:42:11.067Z,7.96
2023-03-22T07:43:11.065Z,5.80
2023-03-22T07:44:17.712Z,6.28
2023-03-22T07:45:13.953Z,5.56
2023-03-22T07:46:11.141Z,6.64
2023-03-22T07:47:11.067Z,8.40
2023-03-22T07:48:11.090Z,6.06
2023-03-22T07:49:11.070Z,6.62
2023-03-22T07:50:11.069Z,5.56
2023-03-22T07:51:11.071Z,6.52
2023-03-22T07:52:11.068Z,5.38
2023-03-22T07:53:11.070Z,5.26
2023-03-22T07:54:14.048Z,5.48
2023-03-22T07:55:13.071Z,6.18
2023-03-22T07:56:11.070Z,6.78
2023-03-22T07:57:11.085Z,6.32
2023-03-22T07:58:11.079Z,8.14
2023-03-22T07:59:11.105Z,5.98
2023-03-22T08:00:11.072Z,7.58
2023-03-22T08:01:12.074Z,5.90
2023-03-22T08:02:11.178Z,6.60
2023-03-22T08:03:13.111Z,7.12
2023-03-22T08:04:11.073Z,6.12
2023-03-22T08:05:11.226Z,4.64
2023-03-22T08:06:11.081Z,5.98
2023-03-22T08:07:13.076Z,7.44
2023-03-22T08:08:11.074Z,6.30
2023-03-22T08:09:12.071Z,5.40
2023-03-22T08:10:11.103Z,6.96
2023-03-22T08:11:11.092Z,5.90
2023-03-22T08:12:11.071Z,5.70
2023-03-22T08:13:11.074Z,6.82
2023-03-22T08:14:11.092Z,6.74
2023-03-22T08:15:11.072Z,6.98
2023-03-22T08:16:11.136Z,5.64
2023-03-22T08:17:11.084Z,6.02
2023-03-22T08:18:12.070Z,5.60
2023-03-22T08:19:11.078Z,6.98
2023-03-22T08:20:13.079Z,5.14
2023-03-22T08:21:11.091Z,6.18
2023-03-22T08:22:11.071Z,6.02
2023-03-22T08:23:11.074Z,7.84
2023-03-22T08:24:11.075Z,6.82
2023-03-22T08:25:11.077Z,7.46
2023-03-22T08:26:11.145Z,7.14
2023-03-22T08:27:11.080Z,6.50
2023-03-22T08:28:11.072Z,6.14
2023-03-22T08:29:11.073Z,6.66
2023-03-22T08:30:11.102Z,7.40
2023-03-22T08:31:15.398Z,7.98
2023-03-22T08:32:11.136Z,6.72
2023-03-22T08:33:11.083Z,6.76
2023-03-22T08:34:11.077Z,6.02
2023-03-22T08:35:11.090Z,6.28
2023-03-22T08:36:14.094Z,6.40
2023-03-22T08:37:11.078Z,6.42
2023-03-22T08:38:11.075Z,7.24
2023-03-22T08:39:11.080Z,6.76
2023-03-22T08:40:12.245Z,5.72
2023-03-22T08:41:11.074Z,6.24
2023-03-22T08:42:11.090Z,7.42
2023-03-22T08:43:11.080Z,6.28
2023-03-22T08:44:11.078Z,7.60
2023-03-22T08:45:11.088Z,5.90
2023-03-22T08:46:11.139Z,5.72
2023-03-22T08:47:11.077Z,6.74
2023-03-22T08:48:11.197Z,4.98
2023-03-22T08:49:11.073Z,6.96
2023-03-22T08:50:11.080Z,5.76
2023-03-22T08:51:11.096Z,5.28
2023-03-22T08:52:11.072Z,6.06
2023-03-22T08:53:11.093Z,6.02
2023-03-22T08:54:11.083Z,5.48
2023-03-22T08:55:11.082Z,5.00
2023-03-22T08:56:11.076Z,5.66
2023-03-22T08:57:13.098Z,7.06
2023-03-22T08:58:13.076Z,6.20
2023-03-22T08:59:11.088Z,6.42
2023-03-22T09:00:11.074Z,4.44
2023-03-22T09:01:13.226Z,6.94
2023-03-22T09:02:11.175Z,4.88
2023-03-22T09:03:11.076Z,5.76
2023-03-22T09:04:11.081Z,7.28
2023-03-22T09:05:11.075Z,5.74
2023-03-22T09:06:11.074Z,6.24
2023-03-22T09:07:11.076Z,6.90
2023-03-22T09:08:18.491Z,5.84
2023-03-22T09:09:13.114Z,7.48
2023-03-22T09:10:11.083Z,7.10
2023-03-22T09:11:11.076Z,6.60
2023-03-22T09:12:11.081Z,6.00
2023-03-22T09:13:11.077Z,4.96
2023-03-22T09:14:11.081Z,5.98
2023-03-22T09:15:11.092Z,6.44
2023-03-22T09:16:11.133Z,5.06
2023-03-22T09:17:11.077Z,5.70
2023-03-22T09:18:11.079Z,6.04
2023-03-22T09:19:11.080Z,6.54
2023-03-22T09:20:12.965Z,8.10
2023-03-22T09:21:11.081Z,5.66
2023-03-22T09:22:11.086Z,5.94
2023-03-22T09:23:11.078Z,7.96
2023-03-22T09:24:11.075Z,5.54
2023-03-22T09:25:12.773Z,6.04
2023-03-22T09:26:11.076Z,5.90
2023-03-22T09:27:11.077Z,7.16
2023-03-22T09:28:11.186Z,5.90
2023-03-22T09:29:11.099Z,5.92
2023-03-22T09:30:11.077Z,6.08
2023-03-22T09:31:11.302Z,6.64
2023-03-22T09:32:11.081Z,6.80
2023-03-22T09:33:11.076Z,7.46
2023-03-22T09:34:11.095Z,5.74
2023-03-22T09:35:11.081Z,6.66
2023-03-22T09:36:11.072Z,5.96
2023-03-22T09:37:11.077Z,6.32
2023-03-22T09:38:11.082Z,7.10
2023-03-22T09:39:11.078Z,5.78
2023-03-22T09:40:11.081Z,8.36
2023-03-22T09:41:20.083Z,5.86
2023-03-22T09:42:19.076Z,6.66
2023-03-22T09:43:13.080Z,7.96
2023-03-22T09:44:15.087Z,7.10
2023-03-22T09:45:19.080Z,6.84
2023-03-22T09:46:17.167Z,6.28
2023-03-22T09:47:16.083Z,5.90
2023-03-22T09:48:21.208Z,9.22
2023-03-22T09:49:17.115Z,6.60
2023-03-22T09:50:18.077Z,6.24
2023-03-22T09:51:19.083Z,5.66
2023-03-22T09:52:15.177Z,8.38
2023-03-22T09:53:13.093Z,8.26
2023-03-22T09:54:15.096Z,7.60
2023-03-22T09:55:20.080Z,6.48
2023-03-22T09:56:17.080Z,6.20
2023-03-22T09:57:16.092Z,6.28
2023-03-22T09:58:19.108Z,6.90
2023-03-22T09:59:19.084Z,6.14
2023-03-22T10:00:20.122Z,7.26
2023-03-22T10:01:21.006Z,6.86
2023-03-22T10:02:19.230Z,6.36
2023-03-22T10:03:19.054Z,6.04
2023-03-22T10:04:21.110Z,7.38
2023-03-22T10:05:19.069Z,5.40
2023-03-22T10:06:18.069Z,8.46
2023-03-22T10:07:21.077Z,7.24
2023-03-22T10:08:19.056Z,7.82
2023-03-22T10:09:19.059Z,5.80
2023-03-22T10:10:14.057Z,6.14
2023-03-22T10:11:19.057Z,6.12
2023-03-22T10:12:19.057Z,6.66
2023-03-22T10:13:21.061Z,6.30
2023-03-22T10:14:21.058Z,6.54
2023-03-22T10:15:19.064Z,5.10
2023-03-22T10:16:13.135Z,6.54
2023-03-22T10:17:19.064Z,6.00
2023-03-22T10:18:15.060Z,6.26
2023-03-22T10:19:21.074Z,5.96
2023-03-22T10:20:22.072Z,6.76
2023-03-22T10:21:14.060Z,6.86
2023-03-22T10:22:12.057Z,6.34
2023-03-22T10:23:16.069Z,5.98
2023-03-22T10:24:17.065Z,6.60
2023-03-22T10:25:15.062Z,5.58
2023-03-22T10:26:15.061Z,5.64
2023-03-22T10:27:15.077Z,6.80
2023-03-22T10:28:20.066Z,7.38
2023-03-22T10:29:21.069Z,6.52
2023-03-22T10:30:16.065Z,6.04
2023-03-22T10:31:16.111Z,8.98
2023-03-22T10:32:18.094Z,7.40
2023-03-22T10:33:19.078Z,7.46
2023-03-22T10:34:19.063Z,6.22
2023-03-22T10:35:14.062Z,6.24
2023-03-22T10:36:14.067Z,5.32
2023-03-22T10:37:18.070Z,6.10
2023-03-22T10:38:19.066Z,6.38
2023-03-22T10:39:19.065Z,4.80
2023-03-22T10:40:17.072Z,5.92
2023-03-22T10:41:11.061Z,6.24
2023-03-22T10:42:19.061Z,6.12
2023-03-22T10:43:19.075Z,7.08
2023-03-22T10:44:14.062Z,5.50
2023-03-22T10:45:13.090Z,5.16
2023-03-22T10:46:18.100Z,5.70
2023-03-22T10:47:12.071Z,6.26
2023-03-22T10:48:20.144Z,5.36
2023-03-22T10:49:17.069Z,6.54
2023-03-22T10:50:19.067Z,8.30
2023-03-22T10:51:17.073Z,6.18
2023-03-22T10:52:21.067Z,6.08
2023-03-22T10:53:19.067Z,6.92
2023-03-22T10:54:14.067Z,5.74
2023-03-22T10:55:16.078Z,6.16
2023-03-22T10:56:17.075Z,6.20
2023-03-22T10:57:11.073Z,6.52
2023-03-22T10:58:18.073Z,5.90
2023-03-22T10:59:15.076Z,5.04
2023-03-22T11:00:17.098Z,5.54
2023-03-22T11:01:11.271Z,6.44
2023-03-22T11:02:19.241Z,6.00
2023-03-22T11:03:15.108Z,4.88
2023-03-22T11:04:16.090Z,5.16
2023-03-22T11:05:19.068Z,6.28
2023-03-22T11:06:19.073Z,7.56
2023-03-22T11:07:21.081Z,6.26
2023-03-22T11:08:15.079Z,6.34
2023-03-22T11:09:15.072Z,5.42
2023-03-22T11:10:19.193Z,5.58
2023-03-22T11:11:19.075Z,7.50
2023-03-22T11:12:13.073Z,7.58
2023-03-22T11:13:17.071Z,5.06
2023-03-22T11:14:19.070Z,6.22
2023-03-22T11:15:19.071Z,5.44
2023-03-22T11:16:11.100Z,4.72
2023-03-22T11:17:12.079Z,6.28
2023-03-22T11:18:14.078Z,5.72
2023-03-22T11:19:17.073Z,5.84
2023-03-22T11:20:17.212Z,5.26
2023-03-22T11:21:12.079Z,5.18
2023-03-22T11:22:19.072Z,5.10
2023-03-22T11:23:15.077Z,6.40
2023-03-22T11:24:14.072Z,5.18
2023-03-22T11:25:21.089Z,4.60
2023-03-22T11:26:14.092Z,6.08
2023-03-22T11:27:19.081Z,5.90
2023-03-22T11:28:21.076Z,5.34
2023-03-22T11:29:17.073Z,6.22
2023-03-22T11:30:18.068Z,7.10
2023-03-22T11:31:15.163Z,6.68
2023-03-22T11:32:19.107Z,6.34
2023-03-22T11:33:18.133Z,4.88
2023-03-22T11:34:16.073Z,4.48
2023-03-22T11:35:18.084Z,5.16
2023-03-22T11:36:18.084Z,5.56
2023-03-22T11:37:11.554Z,5.96
2023-03-22T11:38:19.963Z,5.46
2023-03-22T11:39:11.074Z,6.32
2023-03-22T11:40:17.133Z,6.52
2023-03-22T11:41:18.078Z,5.06
2023-03-22T11:42:17.077Z,6.02
2023-03-22T11:43:23.082Z,7.16
2023-03-22T11:44:13.091Z,5.98
2023-03-22T11:45:16.075Z,5.78
2023-03-22T11:46:11.092Z,5.64
2023-03-22T11:47:12.079Z,5.36
2023-03-22T11:48:17.182Z,5.78
2023-03-22T11:49:13.114Z,5.84
2023-03-22T11:50:19.080Z,6.26
2023-03-22T11:51:12.184Z,5.98
2023-03-22T11:52:12.076Z,5.64
2023-03-22T11:53:15.080Z,5.74
2023-03-22T11:54:15.087Z,5.38
2023-03-22T11:55:15.077Z,5.16
2023-03-22T11:56:16.077Z,5.94
2023-03-22T11:57:14.076Z,4.98
2023-03-22T11:58:15.086Z,5.08
2023-03-22T11:59:16.090Z,5.08
2023-03-22T12:00:20.156Z,5.98
2023-03-22T12:01:18.079Z,5.72
2023-03-22T12:02:21.114Z,5.18
2023-03-22T12:03:17.233Z,5.98
2023-03-22T12:04:16.112Z,6.72
2023-03-22T12:05:18.145Z,5.16
2023-03-22T12:06:21.136Z,7.08
2023-03-22T12:07:16.093Z,4.76
2023-03-22T12:08:19.080Z,5.34
2023-03-22T12:09:19.087Z,5.34
2023-03-22T12:10:21.090Z,5.40
2023-03-22T12:11:17.112Z,5.72
2023-03-22T12:12:19.078Z,5.44
2023-03-22T12:13:18.126Z,5.62
2023-03-22T12:14:21.089Z,6.48
2023-03-22T12:15:19.075Z,5.52
2023-03-22T12:16:14.129Z,5.18
2023-03-22T12:17:17.079Z,5.20
2023-03-22T12:18:21.123Z,4.72
2023-03-22T12:19:21.092Z,5.76
2023-03-22T12:20:19.087Z,5.32
2023-03-22T12:21:11.084Z,5.66
2023-03-22T12:22:15.080Z,5.06
2023-03-22T12:23:18.090Z,5.52
2023-03-22T12:24:19.091Z,4.96
2023-03-22T12:25:19.088Z,5.58
2023-03-22T12:26:19.097Z,4.30
2023-03-22T12:27:18.131Z,5.98
2023-03-22T12:28:15.090Z,5.88
2023-03-22T12:29:16.082Z,6.18
2023-03-22T12:30:21.083Z,4.92
2023-03-22T12:31:16.095Z,3.86
2023-03-22T12:32:21.096Z,6.68
2023-03-22T12:33:20.144Z,4.66
2023-03-22T12:34:15.102Z,5.02
2023-03-22T12:35:19.106Z,6.04
2023-03-22T12:36:16.115Z,5.00
2023-03-22T12:37:15.094Z,4.32
2023-03-22T12:38:21.084Z,4.10
2023-03-22T12:39:18.082Z,4.10
2023-03-22T12:40:18.087Z,3.92
2023-03-22T12:41:14.086Z,4.56
2023-03-22T12:42:21.085Z,5.58
2023-03-22T12:43:21.082Z,5.44
2023-03-22T12:44:21.085Z,3.96
2023-03-22T12:45:18.090Z,4.26
2023-03-22T12:46:20.111Z,4.64
2023-03-22T12:47:19.092Z,4.28
2023-03-22T12:48:19.202Z,5.26
2023-03-22T12:49:19.088Z,3.76
2023-03-22T12:50:19.089Z,6.68
2023-03-22T12:51:12.087Z,3.24
2023-03-22T12:52:19.093Z,4.70
2023-03-22T12:53:15.086Z,3.96
2023-03-22T12:54:17.088Z,6.98
2023-03-22T12:55:15.097Z,4.64
2023-03-22T12:56:16.106Z,4.06
2023-03-22T12:57:11.087Z,5.00
2023-03-22T12:58:12.092Z,5.48
2023-03-22T12:59:19.095Z,4.06
2023-03-22T13:00:15.095Z,5.06
2023-03-22T13:01:19.097Z,4.00
2023-03-22T13:02:16.089Z,3.94
2023-03-22T13:03:21.345Z,3.24
2023-03-22T13:04:19.127Z,3.50
2023-03-22T13:05:12.073Z,5.32
2023-03-22T13:06:19.068Z,4.62
2023-03-22T13:07:15.077Z,4.82
2023-03-22T13:08:11.069Z,4.94
2023-03-22T13:09:19.073Z,3.88
2023-03-22T13:10:19.066Z,3.92
2023-03-22T13:11:19.078Z,4.98
2023-03-22T13:12:21.065Z,4.62
2023-03-22T13:13:16.071Z,4.16
2023-03-22T13:14:13.064Z,4.00
2023-03-22T13:15:20.573Z,5.18
2023-03-22T13:16:15.131Z,5.36
2023-03-22T13:17:12.069Z,3.88
2023-03-22T13:18:19.091Z,4.56